sensor_id;sensor_type;location;lat;lon;timestamp;pressure;altitude;pressure_sealevel;temperature;humidity
68634;BME280;55625;47.072;22.192;2022-10-28T00:00:05;101130.84;;;8.76;100.00
68634;BME280;55625;47.072;22.192;2022-10-28T00:02:32;101124.78;;;8.81;100.00
68634;BME280;55625;47.072;22.192;2022-10-28T00:04:57;101121.13;;;8.77;100.00
68634;BME280;55625;47.072;22.192;2022-10-28T00:07:23;101113.06;;;8.76;100.00
68634;BME280;55625;47.072;22.192;2022-10-28T00:09:49;101127.63;;;8.74;100.00
68634;BME280;55625;47.072;22.192;2022-10-28T00:12:15;101113.06;;;8.72;100.00
68634;BME280;55625;47.072;22.192;2022-10-28T00:14:41;101124.38;;;8.72;100.00
68634;BME280;55625;47.072;22.192;2022-10-28T00:17:06;101119.16;;;8.67;100.00
68634;BME280;55625;47.072;22.192;2022-10-28T00:19:32;101109.84;;;8.63;100.00
68634;BME280;55625;47.072;22.192;2022-10-28T00:21:58;101122.00;;;8.60;100.00
68634;BME280;55625;47.072;22.192;2022-10-28T00:24:24;101116.34;;;8.60;100.00
68634;BME280;55625;47.072;22.192;2022-10-28T00:26:50;101112.28;;;8.61;100.00
68634;BME280;55625;47.072;22.192;2022-10-28T00:29:18;101115.50;;;8.56;100.00
68634;BME280;55625;47.072;22.192;2022-10-28T00:31:44;101116.31;;;8.53;100.00
68634;BME280;55625;47.072;22.192;2022-10-28T00:34:15;101112.28;;;8.54;100.00
68634;BME280;55625;47.072;22.192;2022-10-28T00:36:43;101117.94;;;8.54;100.00
68634;BME280;55625;47.072;22.192;2022-10-28T00:39:22;101107.03;;;8.59;100.00
68634;BME280;55625;47.072;22.192;2022-10-28T00:41:58;101114.72;;;8.59;100.00
68634;BME280;55625;47.072;22.192;2022-10-28T00:44:53;101117.94;;;8.61;100.00
68634;BME280;55625;47.072;22.192;2022-10-28T00:52:58;101107.44;;;8.51;100.00
68634;BME280;55625;47.072;22.192;2022-10-28T00:55:25;101099.34;;;8.49;100.00
68634;BME280;55625;47.072;22.192;2022-10-28T00:57:53;101105.00;;;8.46;100.00
68634;BME280;55625;47.072;22.192;2022-10-28T01:00:24;101104.63;;;8.44;100.00
68634;BME280;55625;47.072;22.192;2022-10-28T01:02:50;101101.38;;;8.45;100.00
68634;BME280;55625;47.072;22.192;2022-10-28T01:05:25;101106.63;;;8.39;100.00
68634;BME280;55625;47.072;22.192;2022-10-28T01:07:55;101100.97;;;8.39;100.00
68634;BME280;55625;47.072;22.192;2022-10-28T01:22:35;101097.75;;;8.27;100.00
68634;BME280;55625;47.072;22.192;2022-10-28T01:37:16;101098.53;;;8.13;100.00
68634;BME280;55625;47.072;22.192;2022-10-28T01:45:49;101099.34;;;8.06;100.00
68634;BME280;55625;47.072;22.192;2022-10-28T01:48:31;101094.50;;;8.07;100.00
68634;BME280;55625;47.072;22.192;2022-10-28T01:53:49;101086.00;;;8.07;100.00
68634;BME280;55625;47.072;22.192;2022-10-28T01:56:24;101084.78;;;8.04;100.00
68634;BME280;55625;47.072;22.192;2022-10-28T01:58:54;101082.38;;;8.03;100.00
68634;BME280;55625;47.072;22.192;2022-10-28T02:01:22;101085.59;;;8.01;100.00
68634;BME280;55625;47.072;22.192;2022-10-28T02:03:49;101077.53;;;8.03;100.00
68634;BME280;55625;47.072;22.192;2022-10-28T02:06:19;101089.25;;;8.02;100.00
68634;BME280;55625;47.072;22.192;2022-10-28T02:15:05;101087.63;;;8.08;100.00
68634;BME280;55625;47.072;22.192;2022-10-28T02:23:27;101084.78;;;8.08;100.00
68634;BME280;55625;47.072;22.192;2022-10-28T02:26:19;101082.78;;;8.08;100.00
68634;BME280;55625;47.072;22.192;2022-10-28T02:32:00;101085.19;;;8.03;100.00
68634;BME280;55625;47.072;22.192;2022-10-28T02:34:32;101086.00;;;8.03;100.00
68634;BME280;55625;47.072;22.192;2022-10-28T02:37:07;101085.59;;;8.01;100.00
68634;BME280;55625;47.072;22.192;2022-10-28T02:39:43;101081.56;;;7.99;100.00
68634;BME280;55625;47.072;22.192;2022-10-28T02:42:21;101078.75;;;7.99;100.00
68634;BME280;55625;47.072;22.192;2022-10-28T02:44:53;101090.81;;;7.92;100.00
68634;BME280;55625;47.072;22.192;2022-10-28T02:47:25;101081.13;;;7.93;100.00
68634;BME280;55625;47.072;22.192;2022-10-28T02:49:58;101085.56;;;7.94;100.00
68634;BME280;55625;47.072;22.192;2022-10-28T02:52:28;101080.72;;;7.95;100.00
68634;BME280;55625;47.072;22.192;2022-10-28T02:55:01;101082.34;;;7.89;100.00
68634;BME280;55625;47.072;22.192;2022-10-28T02:57:37;101085.16;;;7.89;100.00
68634;BME280;55625;47.072;22.192;2022-10-28T03:00:12;101083.16;;;7.89;100.00
68634;BME280;55625;47.072;22.192;2022-10-28T03:02:39;101091.63;;;7.86;100.00
68634;BME280;55625;47.072;22.192;2022-10-28T03:05:05;101090.41;;;7.87;100.00
68634;BME280;55625;47.072;22.192;2022-10-28T03:07:31;101096.47;;;7.82;100.00
68634;BME280;55625;47.072;22.192;2022-10-28T03:09:57;101090.41;;;7.79;100.00
68634;BME280;55625;47.072;22.192;2022-10-28T03:12:23;101083.94;;;7.75;100.00
68634;BME280;55625;47.072;22.192;2022-10-28T03:14:49;101081.94;;;7.69;100.00
68634;BME280;55625;47.072;22.192;2022-10-28T03:17:15;101091.22;;;7.69;100.00
68634;BME280;55625;47.072;22.192;2022-10-28T03:19:41;101081.53;;;7.67;100.00
68634;BME280;55625;47.072;22.192;2022-10-28T03:22:06;101089.19;;;7.66;100.00
68634;BME280;55625;47.072;22.192;2022-10-28T03:24:32;101082.34;;;7.71;100.00
68634;BME280;55625;47.072;22.192;2022-10-28T03:26:59;101079.91;;;7.69;100.00
68634;BME280;55625;47.072;22.192;2022-10-28T03:29:24;101087.56;;;7.65;100.00
68634;BME280;55625;47.072;22.192;2022-10-28T03:31:50;101093.59;;;7.60;100.00
68634;BME280;55625;47.072;22.192;2022-10-28T03:34:16;101096.00;;;7.62;100.00
68634;BME280;55625;47.072;22.192;2022-10-28T03:36:42;101097.63;;;7.59;100.00
68634;BME280;55625;47.072;22.192;2022-10-28T03:39:08;101090.34;;;7.58;100.00
68634;BME280;55625;47.072;22.192;2022-10-28T03:41:33;101093.59;;;7.57;100.00
68634;BME280;55625;47.072;22.192;2022-10-28T03:43:59;101098.44;;;7.56;100.00
68634;BME280;55625;47.072;22.192;2022-10-28T03:46:25;101096.00;;;7.58;100.00
68634;BME280;55625;47.072;22.192;2022-10-28T03:48:51;101094.00;;;7.59;100.00
68634;BME280;55625;47.072;22.192;2022-10-28T03:51:17;101101.66;;;7.55;100.00
68634;BME280;55625;47.072;22.192;2022-10-28T03:53:43;101106.50;;;7.54;100.00
68634;BME280;55625;47.072;22.192;2022-10-28T03:56:09;101099.63;;;7.55;100.00
68634;BME280;55625;47.072;22.192;2022-10-28T03:58:36;101107.69;;;7.53;100.00
68634;BME280;55625;47.072;22.192;2022-10-28T04:01:02;101107.72;;;7.60;100.00
68634;BME280;55625;47.072;22.192;2022-10-28T04:03:28;101103.69;;;7.65;99.11
68634;BME280;55625;47.072;22.192;2022-10-28T04:05:54;101107.31;;;7.58;99.51
68634;BME280;55625;47.072;22.192;2022-10-28T04:08:20;101107.31;;;7.55;99.71
68634;BME280;55625;47.072;22.192;2022-10-28T04:10:47;101109.31;;;7.51;100.00
68634;BME280;55625;47.072;22.192;2022-10-28T04:13:14;101114.53;;;7.45;99.73
68634;BME280;55625;47.072;22.192;2022-10-28T04:15:40;101106.06;;;7.41;100.00
68634;BME280;55625;47.072;22.192;2022-10-28T04:18:06;101104.78;;;7.32;100.00
68634;BME280;55625;47.072;22.192;2022-10-28T04:20:32;101107.19;;;7.26;100.00
68634;BME280;55625;47.072;22.192;2022-10-28T04:22:58;101107.59;;;7.25;100.00
68634;BME280;55625;47.072;22.192;2022-10-28T04:25:26;101099.94;;;7.22;100.00
68634;BME280;55625;47.072;22.192;2022-10-28T04:27:52;101099.94;;;7.22;100.00
68634;BME280;55625;47.072;22.192;2022-10-28T04:30:18;101103.16;;;7.20;100.00
68634;BME280;55625;47.072;22.192;2022-10-28T04:32:44;101107.16;;;7.15;100.00
68634;BME280;55625;47.072;22.192;2022-10-28T04:35:11;101107.56;;;7.10;100.00
68634;BME280;55625;47.072;22.192;2022-10-28T04:37:38;101105.56;;;7.14;100.00
68634;BME280;55625;47.072;22.192;2022-10-28T04:40:07;101104.34;;;7.15;100.00
68634;BME280;55625;47.072;22.192;2022-10-28T04:42:33;101106.38;;;7.19;100.00
68634;BME280;55625;47.072;22.192;2022-10-28T04:44:59;101103.16;;;7.20;100.00
68634;BME280;55625;47.072;22.192;2022-10-28T04:47:24;101107.59;;;7.21;100.00
68634;BME280;55625;47.072;22.192;2022-10-28T04:49:50;101106.78;;;7.17;100.00
68634;BME280;55625;47.072;22.192;2022-10-28T04:52:16;101109.19;;;7.19;100.00
68634;BME280;55625;47.072;22.192;2022-10-28T04:54:42;101115.25;;;7.21;100.00
68634;BME280;55625;47.072;22.192;2022-10-28T04:57:08;101116.88;;;7.22;100.00
68634;BME280;55625;47.072;22.192;2022-10-28T04:59:34;101114.03;;;7.22;100.00
68634;BME280;55625;47.072;22.192;2022-10-28T05:02:00;101111.63;;;7.20;100.00
68634;BME280;55625;47.072;22.192;2022-10-28T05:04:25;101120.91;;;7.21;100.00
68634;BME280;55625;47.072;22.192;2022-10-28T05:06:51;101114.03;;;7.22;100.00
68634;BME280;55625;47.072;22.192;2022-10-28T05:09:17;101110.41;;;7.18;100.00
68634;BME280;55625;47.072;22.192;2022-10-28T05:11:43;101114.81;;;7.15;100.00
68634;BME280;55625;47.072;22.192;2022-10-28T05:14:09;101107.97;;;7.12;100.00
68634;BME280;55625;47.072;22.192;2022-10-28T05:16:34;101111.19;;;7.14;100.00
68634;BME280;55625;47.072;22.192;2022-10-28T05:19:00;101117.66;;;7.15;100.00
68634;BME280;55625;47.072;22.192;2022-10-28T05:21:26;101124.91;;;7.12;100.00
68634;BME280;55625;47.072;22.192;2022-10-28T05:23:52;101116.03;;;7.10;100.00
68634;BME280;55625;47.072;22.192;2022-10-28T05:26:18;101113.59;;;7.12;100.00
68634;BME280;55625;47.072;22.192;2022-10-28T05:28:51;101126.53;;;7.13;100.00
68634;BME280;55625;47.072;22.192;2022-10-28T05:31:17;101118.84;;;7.10;99.77
68634;BME280;55625;47.072;22.192;2022-10-28T05:33:43;101120.06;;;7.13;100.00
68634;BME280;55625;47.072;22.192;2022-10-28T05:36:09;101124.91;;;7.12;100.00
68634;BME280;55625;47.072;22.192;2022-10-28T05:38:35;101130.13;;;7.10;100.00
68634;BME280;55625;47.072;22.192;2022-10-28T05:41:01;101131.38;;;7.16;100.00
68634;BME280;55625;47.072;22.192;2022-10-28T05:43:28;101125.31;;;7.18;100.00
68634;BME280;55625;47.072;22.192;2022-10-28T05:45:55;101137.03;;;7.24;100.00
68634;BME280;55625;47.072;22.192;2022-10-28T05:48:22;101134.63;;;7.26;100.00
68634;BME280;55625;47.072;22.192;2022-10-28T05:50:48;101139.09;;;7.34;99.80
68634;BME280;55625;47.072;22.192;2022-10-28T05:53:14;101138.75;;;7.46;99.85
68634;BME280;55625;47.072;22.192;2022-10-28T05:55:40;101138.78;;;7.57;99.38
68634;BME280;55625;47.072;22.192;2022-10-28T05:58:06;101141.66;;;7.67;98.88
68634;BME280;55625;47.072;22.192;2022-10-28T06:00:32;101140.06;;;7.81;98.22
68634;BME280;55625;47.072;22.192;2022-10-28T06:03:10;101138.47;;;7.94;97.73
68634;BME280;55625;47.072;22.192;2022-10-28T06:05:38;101137.72;;;8.07;97.58
68634;BME280;55625;47.072;22.192;2022-10-28T06:08:06;101144.56;;;8.24;97.34
68634;BME280;55625;47.072;22.192;2022-10-28T06:10:32;101138.97;;;8.38;96.05
68634;BME280;55625;47.072;22.192;2022-10-28T06:12:58;101139.75;;;8.53;95.56
68634;BME280;55625;47.072;22.192;2022-10-28T06:15:24;101147.03;;;8.72;95.09
68634;BME280;55625;47.072;22.192;2022-10-28T06:17:50;101140.97;;;8.88;93.93
68634;BME280;55625;47.072;22.192;2022-10-28T06:20:17;101138.88;;;9.02;92.88
68634;BME280;55625;47.072;22.192;2022-10-28T06:22:53;101146.13;;;9.18;92.21
68634;BME280;55625;47.072;22.192;2022-10-28T06:25:23;101154.19;;;9.30;91.66
68634;BME280;55625;47.072;22.192;2022-10-28T06:27:54;101150.47;;;9.47;91.56
68634;BME280;55625;47.072;22.192;2022-10-28T06:30:22;101162.13;;;9.67;90.81
68634;BME280;55625;47.072;22.192;2022-10-28T06:32:48;101146.66;;;9.79;89.74
68634;BME280;55625;47.072;22.192;2022-10-28T06:35:14;101154.31;;;9.89;89.05
68634;BME280;55625;47.072;22.192;2022-10-28T06:37:40;101150.63;;;9.95;87.93
68634;BME280;55625;47.072;22.192;2022-10-28T06:40:07;101156.28;;;9.99;88.54
68634;BME280;55625;47.072;22.192;2022-10-28T06:42:33;101158.66;;;10.11;88.02
68634;BME280;55625;47.072;22.192;2022-10-28T06:44:58;101152.91;;;10.22;87.61
68634;BME280;55625;47.072;22.192;2022-10-28T06:47:25;101158.13;;;10.31;86.50
68634;BME280;55625;47.072;22.192;2022-10-28T06:49:50;101156.06;;;10.35;86.13
68634;BME280;55625;47.072;22.192;2022-10-28T06:52:16;101155.22;;;10.38;85.99
68634;BME280;55625;47.072;22.192;2022-10-28T06:54:42;101152.81;;;10.33;86.12
68634;BME280;55625;47.072;22.192;2022-10-28T06:57:09;101148.75;;;10.37;86.35
68634;BME280;55625;47.072;22.192;2022-10-28T06:59:36;101158.41;;;10.47;86.06
68634;BME280;55625;47.072;22.192;2022-10-28T07:02:02;101151.44;;;10.55;85.71
68634;BME280;55625;47.072;22.192;2022-10-28T07:04:28;101148.53;;;10.62;85.45
68634;BME280;55625;47.072;22.192;2022-10-28T07:06:55;101152.47;;;10.75;85.88
68634;BME280;55625;47.072;22.192;2022-10-28T07:09:22;101148.19;;;10.98;86.02
68634;BME280;55625;47.072;22.192;2022-10-28T07:11:48;101151.28;;;11.14;84.29
68634;BME280;55625;47.072;22.192;2022-10-28T07:14:15;101144.13;;;11.36;83.71
68634;BME280;55625;47.072;22.192;2022-10-28T07:16:41;101145.97;;;11.50;82.45
68634;BME280;55625;47.072;22.192;2022-10-28T07:19:07;101147.00;;;11.67;82.06
68634;BME280;55625;47.072;22.192;2022-10-28T07:21:34;101136.56;;;11.87;81.79
68634;BME280;55625;47.072;22.192;2022-10-28T07:24:00;101142.88;;;12.02;80.66
68634;BME280;55625;47.072;22.192;2022-10-28T07:26:27;101137.13;;;12.05;81.52
68634;BME280;55625;47.072;22.192;2022-10-28T07:28:53;101143.34;;;12.24;81.16
68634;BME280;55625;47.072;22.192;2022-10-28T07:31:19;101147.31;;;12.30;81.34
68634;BME280;55625;47.072;22.192;2022-10-28T07:33:50;101146.91;;;12.55;81.26
68634;BME280;55625;47.072;22.192;2022-10-28T07:36:17;101149.09;;;12.70;81.52
68634;BME280;55625;47.072;22.192;2022-10-28T07:38:42;101142.06;;;12.98;80.50
68634;BME280;55625;47.072;22.192;2022-10-28T07:41:09;101134.31;;;13.22;80.13
68634;BME280;55625;47.072;22.192;2022-10-28T07:43:38;101142.78;;;13.46;79.18
68634;BME280;55625;47.072;22.192;2022-10-28T07:46:06;101146.44;;;13.66;78.94
68634;BME280;55625;47.072;22.192;2022-10-28T07:48:33;101146.25;;;13.93;79.18
68634;BME280;55625;47.072;22.192;2022-10-28T07:51:02;101147.47;;;14.12;77.19
68634;BME280;55625;47.072;22.192;2022-10-28T07:53:28;101144.25;;;14.26;77.57
68634;BME280;55625;47.072;22.192;2022-10-28T07:56:00;101140.56;;;14.45;76.65
68634;BME280;55625;47.072;22.192;2022-10-28T07:58:28;101143.97;;;14.56;76.59
68634;BME280;55625;47.072;22.192;2022-10-28T08:00:54;101139.84;;;14.74;75.99
68634;BME280;55625;47.072;22.192;2022-10-28T08:03:19;101147.50;;;14.93;75.39
68634;BME280;55625;47.072;22.192;2022-10-28T08:05:46;101144.47;;;15.00;75.45
68634;BME280;55625;47.072;22.192;2022-10-28T08:08:12;101141.00;;;15.21;75.44
68634;BME280;55625;47.072;22.192;2022-10-28T08:10:38;101139.94;;;15.44;74.66
68634;BME280;55625;47.072;22.192;2022-10-28T08:13:04;101140.19;;;15.50;73.77
68634;BME280;55625;47.072;22.192;2022-10-28T08:15:31;101132.50;;;15.63;73.26
68634;BME280;55625;47.072;22.192;2022-10-28T08:17:57;101133.19;;;15.80;72.75
68634;BME280;55625;47.072;22.192;2022-10-28T08:20:23;101141.03;;;16.05;73.12
68634;BME280;55625;47.072;22.192;2022-10-28T08:22:49;101133.91;;;16.22;71.65
68634;BME280;55625;47.072;22.192;2022-10-28T08:25:15;101137.03;;;16.28;71.48
68634;BME280;55625;47.072;22.192;2022-10-28T08:27:41;101137.81;;;16.54;71.87
68634;BME280;55625;47.072;22.192;2022-10-28T08:30:08;101140.91;;;16.72;70.00
68634;BME280;55625;47.072;22.192;2022-10-28T08:32:34;101144.66;;;16.82;70.12
68634;BME280;55625;47.072;22.192;2022-10-28T08:35:00;101144.44;;;16.89;69.40
68634;BME280;55625;47.072;22.192;2022-10-28T08:37:26;101143.78;;;17.06;70.09
68634;BME280;55625;47.072;22.192;2022-10-28T08:39:52;101140.75;;;17.23;70.63
68634;BME280;55625;47.072;22.192;2022-10-28T08:42:46;101151.06;;;17.55;68.53
68634;BME280;55625;47.072;22.192;2022-10-28T08:45:30;101134.28;;;17.75;67.43
68634;BME280;55625;47.072;22.192;2022-10-28T08:51:19;101144.25;;;18.14;66.66
68634;BME280;55625;47.072;22.192;2022-10-28T08:53:53;101143.25;;;18.39;66.54
68634;BME280;55625;47.072;22.192;2022-10-28T08:56:41;101152.25;;;18.59;65.59
68634;BME280;55625;47.072;22.192;2022-10-28T08:59:18;101153.78;;;18.82;64.77
68634;BME280;55625;47.072;22.192;2022-10-28T09:01:52;101140.38;;;18.88;63.91
68634;BME280;55625;47.072;22.192;2022-10-28T09:07:08;101142.00;;;19.08;62.84
68634;BME280;55625;47.072;22.192;2022-10-28T09:09:38;101137.19;;;19.23;63.99
68634;BME280;55625;47.072;22.192;2022-10-28T09:15:10;101135.13;;;19.51;62.57
68634;BME280;55625;47.072;22.192;2022-10-28T09:21:04;101134.31;;;19.50;61.54
68634;BME280;55625;47.072;22.192;2022-10-28T09:23:36;101128.91;;;19.62;61.24
68634;BME280;55625;47.072;22.192;2022-10-28T09:26:19;101116.88;;;19.72;62.18
68634;BME280;55625;47.072;22.192;2022-10-28T09:31:45;101117.78;;;19.97;61.22
68634;BME280;55625;47.072;22.192;2022-10-28T09:34:46;101127.56;;;19.90;59.59
68634;BME280;55625;47.072;22.192;2022-10-28T09:37:29;101124.25;;;20.15;59.38
68634;BME280;55625;47.072;22.192;2022-10-28T09:40:03;101125.53;;;20.24;58.22
68634;BME280;55625;47.072;22.192;2022-10-28T09:42:40;101119.38;;;20.40;59.02
68634;BME280;55625;47.072;22.192;2022-10-28T09:45:18;101125.44;;;20.51;57.98
68634;BME280;55625;47.072;22.192;2022-10-28T09:47:59;101127.28;;;20.63;58.52
68634;BME280;55625;47.072;22.192;2022-10-28T09:50:31;101118.06;;;20.74;57.49
68634;BME280;55625;47.072;22.192;2022-10-28T09:53:59;101122.91;;;20.68;55.99
68634;BME280;55625;47.072;22.192;2022-10-28T09:56:00;101108.00;;;20.69;56.68
68634;BME280;55625;47.072;22.192;2022-10-28T09:58:27;101114.16;;;20.86;57.72
68634;BME280;55625;47.072;22.192;2022-10-28T10:00:53;101116.59;;;20.78;58.41
68634;BME280;55625;47.072;22.192;2022-10-28T10:03:19;101115.97;;;20.74;58.08
68634;BME280;55625;47.072;22.192;2022-10-28T10:05:49;101122.94;;;20.92;57.49
68634;BME280;55625;47.072;22.192;2022-10-28T10:08:18;101119.94;;;20.86;56.84
68634;BME280;55625;47.072;22.192;2022-10-28T10:10:59;101120.84;;;20.92;58.14
68634;BME280;55625;47.072;22.192;2022-10-28T10:13:35;101109.53;;;21.03;58.36
68634;BME280;55625;47.072;22.192;2022-10-28T10:18:50;101103.25;;;21.05;57.14
68634;BME280;55625;47.072;22.192;2022-10-28T10:21:16;101102.75;;;21.06;58.48
68634;BME280;55625;47.072;22.192;2022-10-28T10:23:44;101101.94;;;20.91;57.73
68634;BME280;55625;47.072;22.192;2022-10-28T10:26:15;101109.19;;;20.87;58.89
68634;BME280;55625;47.072;22.192;2022-10-28T10:28:49;101096.28;;;20.97;59.08
68634;BME280;55625;47.072;22.192;2022-10-28T10:31:22;101105.03;;;21.02;58.55
68634;BME280;55625;47.072;22.192;2022-10-28T10:33:51;101103.75;;;21.27;57.29
68634;BME280;55625;47.072;22.192;2022-10-28T10:36:20;101094.53;;;21.14;58.52
68634;BME280;55625;47.072;22.192;2022-10-28T10:38:51;101101.84;;;21.24;58.84
68634;BME280;55625;47.072;22.192;2022-10-28T10:41:39;101100.72;;;21.22;57.04
68634;BME280;55625;47.072;22.192;2022-10-28T10:44:31;101092.50;;;21.29;57.88
68634;BME280;55625;47.072;22.192;2022-10-28T10:49:28;101091.25;;;21.45;58.48
68634;BME280;55625;47.072;22.192;2022-10-28T10:52:06;101093.44;;;21.50;56.98
68634;BME280;55625;47.072;22.192;2022-10-28T10:55:03;101084.88;;;21.56;57.28
68634;BME280;55625;47.072;22.192;2022-10-28T10:57:30;101081.38;;;21.52;56.93
68634;BME280;55625;47.072;22.192;2022-10-28T10:59:57;101073.47;;;21.37;56.46
68634;BME280;55625;47.072;22.192;2022-10-28T11:02:35;101075.06;;;21.38;57.84
68634;BME280;55625;47.072;22.192;2022-10-28T11:05:09;101075.38;;;21.41;57.04
68634;BME280;55625;47.072;22.192;2022-10-28T11:07:37;101070.75;;;21.19;57.75
68634;BME280;55625;47.072;22.192;2022-10-28T11:10:05;101071.28;;;21.32;58.45
68634;BME280;55625;47.072;22.192;2022-10-28T11:12:55;101072.78;;;21.43;58.23
68634;BME280;55625;47.072;22.192;2022-10-28T11:15:26;101068.22;;;21.51;57.57
68634;BME280;55625;47.072;22.192;2022-10-28T11:18:16;101057.66;;;21.48;56.70
68634;BME280;55625;47.072;22.192;2022-10-28T11:42:01;101054.50;;;21.46;57.75
68634;BME280;55625;47.072;22.192;2022-10-28T11:53:46;101048.16;;;21.18;57.57
68634;BME280;55625;47.072;22.192;2022-10-28T11:56:38;101044.69;;;21.28;57.85
68634;BME280;55625;47.072;22.192;2022-10-28T12:08:29;101029.97;;;20.88;59.59
68634;BME280;55625;47.072;22.192;2022-10-28T12:16:42;101030.16;;;20.84;59.66
68634;BME280;55625;47.072;22.192;2022-10-28T12:22:29;101026.72;;;20.71;60.69
68634;BME280;55625;47.072;22.192;2022-10-28T12:25:06;101029.56;;;20.56;61.06
68634;BME280;55625;47.072;22.192;2022-10-28T12:27:37;101028.94;;;20.76;60.35
68634;BME280;55625;47.072;22.192;2022-10-28T12:32:50;101028.31;;;20.24;62.39
68634;BME280;55625;47.072;22.192;2022-10-28T12:35:28;101026.72;;;20.47;61.03
68634;BME280;55625;47.072;22.192;2022-10-28T12:38:19;101029.34;;;20.36;61.77
68634;BME280;55625;47.072;22.192;2022-10-28T12:41:01;101029.13;;;20.15;62.95
68634;BME280;55625;47.072;22.192;2022-10-28T12:43:35;101025.75;;;19.93;62.85
68634;BME280;55625;47.072;22.192;2022-10-28T12:46:03;101021.88;;;19.96;64.16
68634;BME280;55625;47.072;22.192;2022-10-28T12:48:40;101030.72;;;19.93;63.82
68634;BME280;55625;47.072;22.192;2022-10-28T12:51:30;101022.91;;;19.75;64.46
68634;BME280;55625;47.072;22.192;2022-10-28T12:54:27;101030.91;;;19.80;64.25
68634;BME280;55625;47.072;22.192;2022-10-28T12:57:10;101026.03;;;19.62;64.21
68634;BME280;55625;47.072;22.192;2022-10-28T12:59:44;101026.16;;;19.49;64.87
68634;BME280;55625;47.072;22.192;2022-10-28T13:02:30;101025.22;;;19.43;65.96
68634;BME280;55625;47.072;22.192;2022-10-28T13:04:58;101024.47;;;19.34;65.80
68634;BME280;55625;47.072;22.192;2022-10-28T13:08:05;101025.94;;;19.11;66.91
68634;BME280;55625;47.072;22.192;2022-10-28T13:10:47;101011.84;;;19.13;66.74
68634;BME280;55625;47.072;22.192;2022-10-28T13:13:41;101028.81;;;19.02;67.62
68634;BME280;55625;47.072;22.192;2022-10-28T13:16:41;101012.19;;;19.06;67.18
68634;BME280;55625;47.072;22.192;2022-10-28T13:28:01;101024.03;;;18.80;67.73
68634;BME280;55625;47.072;22.192;2022-10-28T13:30:28;101022.56;;;18.67;68.60
68634;BME280;55625;47.072;22.192;2022-10-28T13:33:23;101021.41;;;18.55;68.44
68634;BME280;55625;47.072;22.192;2022-10-28T13:35:49;101022.84;;;18.59;68.60
68634;BME280;55625;47.072;22.192;2022-10-28T13:38:22;101018.53;;;18.55;68.55
68634;BME280;55625;47.072;22.192;2022-10-28T13:51:51;101027.66;;;17.95;69.70
68634;BME280;55625;47.072;22.192;2022-10-28T13:54:32;101018.53;;;17.87;70.27
68634;BME280;55625;47.072;22.192;2022-10-28T13:59:59;101023.00;;;17.57;71.27
68634;BME280;55625;47.072;22.192;2022-10-28T14:02:41;101021.22;;;17.51;71.85
68634;BME280;55625;47.072;22.192;2022-10-28T14:05:13;101025.28;;;17.41;72.60
68634;BME280;55625;47.072;22.192;2022-10-28T14:08:03;101025.75;;;17.39;73.01
68634;BME280;55625;47.072;22.192;2022-10-28T14:10:31;101025.38;;;17.28;73.73
68634;BME280;55625;47.072;22.192;2022-10-28T14:15:36;101023.03;;;17.14;73.74
68634;BME280;55625;47.072;22.192;2022-10-28T14:18:21;101026.19;;;17.06;74.12
68634;BME280;55625;47.072;22.192;2022-10-28T14:26:04;101006.91;;;16.85;75.27
68634;BME280;55625;47.072;22.192;2022-10-28T14:33:43;101016.03;;;16.58;76.81
68634;BME280;55625;47.072;22.192;2022-10-28T14:39:39;101008.75;;;16.44;77.08
68634;BME280;55625;47.072;22.192;2022-10-28T14:50:43;101017.97;;;16.14;77.76
68634;BME280;55625;47.072;22.192;2022-10-28T14:53:33;101007.69;;;16.04;78.32
68634;BME280;55625;47.072;22.192;2022-10-28T14:56:04;101004.38;;;15.93;79.18
68634;BME280;55625;47.072;22.192;2022-10-28T14:58:38;101007.47;;;15.86;79.16
68634;BME280;55625;47.072;22.192;2022-10-28T15:06:29;101000.22;;;15.56;80.85
68634;BME280;55625;47.072;22.192;2022-10-28T15:09:01;101004.44;;;15.51;81.00
68634;BME280;55625;47.072;22.192;2022-10-28T15:11:28;100994.03;;;15.44;81.21
68634;BME280;55625;47.072;22.192;2022-10-28T15:13:53;100999.19;;;15.37;81.79
68634;BME280;55625;47.072;22.192;2022-10-28T15:16:24;100990.91;;;15.26;81.87
68634;BME280;55625;47.072;22.192;2022-10-28T15:18:52;100994.09;;;15.15;82.38
68634;BME280;55625;47.072;22.192;2022-10-28T15:21:21;100996.50;;;15.04;82.89
68634;BME280;55625;47.072;22.192;2022-10-28T15:24:03;101002.06;;;14.95;83.08
68634;BME280;55625;47.072;22.192;2022-10-28T15:26:31;101006.03;;;14.85;83.53
68634;BME280;55625;47.072;22.192;2022-10-28T15:28:57;101002.34;;;14.72;84.18
68634;BME280;55625;47.072;22.192;2022-10-28T15:31:24;101003.06;;;14.59;84.60
68634;BME280;55625;47.072;22.192;2022-10-28T15:33:50;100996.84;;;14.48;85.27
68634;BME280;55625;47.072;22.192;2022-10-28T15:36:21;101001.19;;;14.37;85.25
68634;BME280;55625;47.072;22.192;2022-10-28T15:39:05;101007.19;;;14.26;85.82
68634;BME280;55625;47.072;22.192;2022-10-28T15:41:46;101015.97;;;14.19;85.76
68634;BME280;55625;47.072;22.192;2022-10-28T15:44:38;101015.84;;;14.06;86.57
68634;BME280;55625;47.072;22.192;2022-10-28T15:47:21;101018.44;;;14.01;87.21
68634;BME280;55625;47.072;22.192;2022-10-28T15:50:31;101012.13;;;13.93;87.06
68634;BME280;55625;47.072;22.192;2022-10-28T15:55:33;101010.78;;;13.81;87.96
68634;BME280;55625;47.072;22.192;2022-10-28T16:00:53;101027.50;;;13.63;87.92
68634;BME280;55625;47.072;22.192;2022-10-28T16:06:05;101011.22;;;13.27;88.06